Time;durP1;ratioP1;P1;durP2;ratioP2;P2;SDS_P1;SDS_P2;PMS_P1;PMS_P2;Temp;Humidity;BMP_temperature;BMP_pressure;BME280_temperature;BME280_humidity;BME280_pressure;Samples;Min_cycle;Max_cycle;Signal;HPM_P1;HPM_P2
2022/04/01 00:00:48;;;;;;;9.98;2.95;;;;;;;8.59;24.29;100071.28;4833002;29;96980;-70
2022/04/01 00:03:15;;;;;;;7.35;3.50;;;;;;;8.80;24.45;100067.78;4834269;29;97614;-70
2022/04/01 00:05:42;;;;;;;9.40;4.20;;;;;;;8.47;24.92;100077.84;4833300;29;97983;-71
2022/04/01 00:08:09;;;;;;;7.10;3.50;;;;;;;7.43;26.94;100069.25;4834803;29;97704;-69
2022/04/01 00:10:35;;;;;;;7.75;3.70;;;;;;;8.17;25.90;100078.94;4831726;29;96900;-70
2022/04/01 00:13:03;;;;;;;9.25;3.45;;;;;;;7.11;27.53;100067.69;4832612;29;99094;-69
2022/04/01 00:15:30;;;;;;;6.47;3.22;;;;;;;7.82;26.79;100081.03;4832884;29;97662;-70
2022/04/01 00:17:57;;;;;;;7.63;3.30;;;;;;;8.46;25.56;100083.19;4832366;29;97836;-69
2022/04/01 00:20:27;;;;;;;9.98;3.90;;;;;;;7.81;26.33;100074.06;4832103;29;97340;-69
2022/04/01 00:22:54;;;;;;;10.60;3.38;;;;;;;7.23;27.17;100080.41;4831428;29;99116;-69
2022/04/01 00:25:20;;;;;;;8.35;3.38;;;;;;;7.08;27.61;100080.94;4832140;29;98172;-71
2022/04/01 00:27:47;;;;;;;12.15;3.63;;;;;;;7.37;27.02;100072.09;4833638;29;98886;-69
2022/04/01 00:30:14;;;;;;;6.03;3.55;;;;;;;7.88;26.50;100079.97;4830813;29;97746;-69
2022/04/01 00:32:41;;;;;;;5.55;3.20;;;;;;;7.92;26.69;100079.84;4830668;29;99817;-69
2022/04/01 00:35:08;;;;;;;7.75;3.40;;;;;;;7.52;27.01;100077.72;4831637;29;99742;-69
2022/04/01 00:37:35;;;;;;;9.38;3.70;;;;;;;8.17;25.95;100087.72;4832614;29;97371;-69
2022/04/01 00:40:02;;;;;;;6.80;3.22;;;;;;;7.93;26.67;100078.06;4830639;29;97669;-68
2022/04/01 00:42:30;;;;;;;6.82;3.53;;;;;;;7.29;27.44;100088.09;4831159;29;99187;-69
2022/04/01 00:44:58;;;;;;;11.30;3.70;;;;;;;7.98;26.53;100082.25;4830103;29;102172;-70
2022/04/01 00:47:26;;;;;;;7.88;3.10;;;;;;;7.30;27.17;100070.56;4832004;29;96987;-70
2022/04/01 00:49:54;;;;;;;9.30;3.53;;;;;;;7.27;27.23;100070.69;4829871;29;98615;-68
2022/04/01 00:52:22;;;;;;;4.63;2.97;;;;;;;7.32;27.45;100069.63;4828332;29;99655;-69
2022/04/01 00:54:49;;;;;;;8.68;3.42;;;;;;;7.30;27.13;100081.09;4831606;29;103452;-69
2022/04/01 00:57:18;;;;;;;14.38;3.58;;;;;;;7.39;26.69;100068.50;4829643;29;96925;-69
2022/04/01 00:59:46;;;;;;;8.60;2.88;;;;;;;7.42;27.04;100070.16;4830766;29;97098;-70
2022/04/01 01:02:14;;;;;;;10.95;3.10;;;;;;;6.44;28.31;100071.50;4828498;29;99262;-69
2022/04/01 01:04:42;;;;;;;8.35;3.28;;;;;;;6.40;28.59;100081.25;4830974;29;98050;-70
2022/04/01 01:07:08;;;;;;;9.73;2.95;;;;;;;6.62;28.40;100082.34;4829547;29;99092;-69
2022/04/01 01:09:34;;;;;;;7.68;3.28;;;;;;;6.66;28.32;100086.59;4832065;29;97475;-69
2022/04/01 01:12:03;;;;;;;9.40;3.10;;;;;;;5.85;29.06;100080.13;4832294;29;98957;-70
2022/04/01 01:14:31;;;;;;;8.98;3.20;;;;;;;6.20;28.91;100071.31;4830861;29;98058;-69
2022/04/01 01:16:59;;;;;;;7.22;3.10;;;;;;;6.38;28.83;100072.56;4833688;29;96753;-70
2022/04/01 01:19:26;;;;;;;9.18;3.17;;;;;;;6.42;28.74;100081.22;4831839;29;97184;-70
2022/04/01 01:21:56;;;;;;;7.97;3.03;;;;;;;6.36;28.48;100069.13;4828646;29;99041;-70
2022/04/01 01:24:28;;;;;;;16.63;3.55;;;;;;;6.76;28.02;100061.75;4831842;29;98951;-70
2022/04/01 01:26:57;;;;;;;9.07;3.35;;;;;;;7.74;26.98;100066.47;4830218;29;98226;-70
2022/04/01 01:29:25;;;;;;;11.60;3.00;;;;;;;8.13;26.44;100067.69;4829449;29;97569;-70
2022/04/01 01:31:52;;;;;;;5.63;2.88;;;;;;;7.25;27.24;100067.25;4828605;29;99100;-69
2022/04/01 01:34:19;;;;;;;5.50;3.20;;;;;;;7.19;27.74;100068.31;4831862;29;99463;-70
2022/04/01 01:36:46;;;;;;;12.20;5.07;;;;;;;7.13;27.60;100073.75;4830367;29;96957;-69
2022/04/01 01:39:13;;;;;;;9.90;3.22;;;;;;;7.43;27.17;100064.00;4830416;29;98681;-69
2022/04/01 01:41:41;;;;;;;11.05;3.10;;;;;;;7.40;27.12;100059.72;4832412;29;98248;-70
2022/04/01 01:44:07;;;;;;;5.38;3.25;;;;;;;6.70;28.16;100063.72;4830310;29;102256;-70
2022/04/01 01:46:34;;;;;;;7.40;3.67;;;;;;;7.29;27.17;100063.59;4831378;29;97797;-69
2022/04/01 01:49:01;;;;;;;6.53;3.72;;;;;;;6.86;27.56;100069.38;4832784;29;96795;-70
2022/04/01 01:56:59;;;;;;;11.07;3.25;;;;;;;6.38;29.07;100068.16;4829696;29;96860;-70
2022/04/01 01:59:26;;;;;;;7.10;3.45;;;;;;;5.94;28.87;100066.81;4829342;29;96830;-70
2022/04/01 02:01:53;;;;;;;9.93;3.58;;;;;;;6.84;28.00;100063.28;4827910;29;98940;-73
2022/04/01 02:04:22;;;;;;;10.65;3.80;;;;;;;6.28;28.65;100065.88;4831088;29;98859;-71
2022/04/01 02:06:48;;;;;;;13.55;3.30;;;;;;;6.11;28.58;100066.31;4829360;29;96885;-72
2022/04/01 02:09:15;;;;;;;6.35;2.58;;;;;;;6.21;28.86;100064.31;4831690;29;97308;-71
2022/04/01 02:11:41;;;;;;;8.98;3.05;;;;;;;6.74;28.25;100063.59;4829646;29;97740;-71
2022/04/01 02:14:09;;;;;;;7.60;3.42;;;;;;;6.35;28.73;100070.03;4829732;29;98107;-71
2022/04/01 02:16:37;;;;;;;9.13;3.28;;;;;;;5.85;29.43;100066.16;4830471;29;96968;-72
2022/04/01 02:19:03;;;;;;;12.10;4.00;;;;;;;6.04;29.34;100062.16;4832131;29;96894;-72
2022/04/01 02:21:30;;;;;;;6.70;3.63;;;;;;;6.03;29.90;100062.22;4831232;29;97754;-72
2022/04/01 02:23:56;;;;;;;9.73;4.18;;;;;;;5.89;29.93;100067.84;4829966;29;99503;-72
2022/04/01 02:26:22;;;;;;;5.32;3.33;;;;;;;6.43;29.11;100067.19;4831747;29;97052;-72
2022/04/01 02:28:51;;;;;;;8.80;2.92;;;;;;;6.17;29.27;100062.69;4831477;29;97107;-71
2022/04/01 02:31:18;;;;;;;10.85;3.67;;;;;;;5.27;30.50;100072.03;4827916;29;99082;-71
2022/04/01 02:33:45;;;;;;;10.85;3.53;;;;;;;5.66;30.51;100075.41;4828095;29;98958;-71
2022/04/01 02:36:12;;;;;;;10.23;3.80;;;;;;;5.83;29.78;100068.84;4830528;29;96847;-71
2022/04/01 02:38:40;;;;;;;13.35;3.47;;;;;;;5.80;30.52;100061.03;4830701;29;96982;-71
2022/04/01 02:41:08;;;;;;;10.93;3.85;;;;;;;6.83;28.72;100064.22;4829367;29;98919;-73
2022/04/01 02:43:36;;;;;;;7.03;3.05;;;;;;;6.24;29.37;100058.97;4827541;29;102048;-70
2022/04/01 02:46:05;;;;;;;5.93;3.53;;;;;;;6.33;29.34;100069.22;4829252;29;96793;-72
2022/04/01 02:48:33;;;;;;;8.10;3.35;;;;;;;6.56;28.97;100073.78;4830540;29;97804;-72
2022/04/01 02:51:00;;;;;;;7.80;3.55;;;;;;;5.64;30.42;100064.13;4830679;29;99604;-71
2022/04/01 02:53:26;;;;;;;11.70;3.75;;;;;;;5.68;30.34;100064.00;4829983;29;99393;-70
2022/04/01 02:55:52;;;;;;;8.38;3.30;;;;;;;6.22;29.56;100066.91;4829596;29;96853;-70
2022/04/01 02:58:20;;;;;;;9.00;3.53;;;;;;;6.44;29.42;100063.63;4832280;29;97467;-71
2022/04/01 03:00:47;;;;;;;8.13;3.25;;;;;;;5.99;29.52;100069.28;4829416;29;99023;-71
2022/04/01 03:03:14;;;;;;;7.60;3.40;;;;;;;6.53;28.95;100074.75;4828516;29;99228;-71
2022/04/01 03:05:43;;;;;;;9.60;3.85;;;;;;;6.16;29.33;100082.81;4827381;29;98877;-72
2022/04/01 03:08:10;;;;;;;11.50;3.88;;;;;;;6.08;29.50;100083.94;4830066;29;97753;-72
2022/04/01 03:10:39;;;;;;;6.28;3.25;;;;;;;7.05;28.46;100081.00;4827504;29;99666;-72
2022/04/01 03:13:08;;;;;;;6.72;3.03;;;;;;;5.89;29.80;100079.19;4828967;29;99358;-72
2022/04/01 03:15:36;;;;;;;12.48;3.85;;;;;;;5.26;31.14;100093.88;4828439;29;97469;-73
2022/04/01 03:18:06;;;;;;;8.05;3.70;;;;;;;5.76;30.63;100095.25;4828572;29;97457;-71
2022/04/01 03:20:35;;;;;;;12.00;4.03;;;;;;;5.17;31.16;100087.13;4830564;29;99727;-71
2022/04/01 03:23:03;;;;;;;7.47;3.33;;;;;;;4.96;31.54;100085.88;4825584;29;100762;-71
2022/04/01 03:25:32;;;;;;;12.60;3.83;;;;;;;4.85;31.59;100094.88;4826259;29;98291;-72
2022/04/01 03:28:00;;;;;;;8.07;3.78;;;;;;;4.91;31.74;100085.13;4829793;29;97203;-72
2022/04/01 03:30:27;;;;;;;7.35;3.50;;;;;;;4.81;31.87;100091.44;4827880;29;99449;-71
2022/04/01 03:32:54;;;;;;;7.38;3.72;;;;;;;5.00;31.91;100094.50;4828633;29;98544;-71
2022/04/01 03:35:21;;;;;;;7.45;3.58;;;;;;;5.15;31.50;100095.00;4827865;29;96864;-72
2022/04/01 03:37:49;;;;;;;10.25;4.05;;;;;;;5.45;30.51;100080.28;4829438;29;97002;-71
2022/04/01 03:40:17;;;;;;;8.10;3.83;;;;;;;5.51;30.53;100089.78;4828194;29;98044;-71
2022/04/01 03:42:44;;;;;;;10.93;3.83;;;;;;;5.37;30.57;100086.63;4831054;29;98938;-72
2022/04/01 03:45:12;;;;;;;9.40;3.70;;;;;;;5.98;30.42;100088.53;4827363;29;98364;-72
2022/04/01 03:48:00;;;;;;;8.85;4.10;;;;;;;5.47;30.43;100086.38;4828605;29;96937;-73
2022/04/01 03:50:32;;;;;;;8.30;3.40;;;;;;;4.84;31.27;100099.25;4831329;29;99981;-71
2022/04/01 03:53:04;;;;;;;10.60;4.10;;;;;;;5.12;31.13;100095.06;4829764;29;100016;-71
2022/04/01 03:55:35;;;;;;;7.32;4.15;;;;;;;5.36;31.37;100092.78;4830609;29;96832;-71
2022/04/01 03:58:08;;;;;;;8.55;4.00;;;;;;;5.18;31.22;100087.09;4824490;29;96831;-71
2022/04/01 04:00:35;;;;;;;8.32;3.83;;;;;;;5.37;30.72;100089.25;4832596;29;99079;-71
2022/04/01 04:03:08;;;;;;;10.35;3.72;;;;;;;5.01;31.55;100091.00;4837240;29;97799;-72
2022/04/01 04:05:37;;;;;;;14.07;4.55;;;;;;;5.08;31.36;100090.81;4831293;29;96954;-70
2022/04/01 04:08:04;;;;;;;10.95;3.60;;;;;;;4.97;31.64;100084.97;4827027;29;98092;-71
2022/04/01 04:10:32;;;;;;;12.95;3.65;;;;;;;5.56;30.60;100088.75;4833860;29;99163;-71
2022/04/01 04:13:01;;;;;;;6.97;3.38;;;;;;;6.38;29.15;100088.28;4832828;29;101468;-71
2022/04/01 04:15:29;;;;;;;11.75;3.70;;;;;;;6.46;29.19;100090.69;4833359;29;99107;-72
2022/04/01 04:18:06;;;;;;;9.63;4.07;;;;;;;5.93;29.66;100088.69;4829897;29;97638;-72
2022/04/01 04:20:34;;;;;;;;;;;;;;;5.37;30.42;100091.88;4830267;29;99744;-72
2022/04/01 04:23:09;;;;;;;8.98;3.88;;;;;;;4.96;31.56;100095.47;4831916;29;98154;-72
2022/04/01 04:25:38;;;;;;;7.00;3.38;;;;;;;5.77;30.68;100091.72;4828789;29;96893;-70
2022/04/01 04:28:10;;;;;;;9.45;3.47;;;;;;;4.91;31.59;100099.97;4832409;29;99185;-72
2022/04/01 04:30:40;;;;;;;6.35;3.53;;;;;;;4.86;31.82;100102.66;4831620;29;100151;-73
2022/04/01 04:33:08;;;;;;;7.32;3.55;;;;;;;5.98;30.69;100097.28;4828300;29;98899;-72
2022/04/01 04:35:38;;;;;;;10.38;4.07;;;;;;;6.28;29.68;100097.34;4831288;29;97426;-72
2022/04/01 04:38:05;;;;;;;10.98;4.18;;;;;;;5.35;30.82;100107.63;4829685;29;97182;-71
2022/04/01 04:40:34;;;;;;;11.13;3.70;;;;;;;5.62;30.75;100106.09;4832045;29;99028;-73
2022/04/01 04:43:01;;;;;;;12.07;4.15;;;;;;;5.17;31.20;100111.56;4830561;29;98987;-71
2022/04/01 04:45:29;;;;;;;11.50;3.97;;;;;;;5.63;30.46;100109.56;4830799;29;97642;-73
2022/04/01 04:47:57;;;;;;;14.13;4.95;;;;;;;6.06;30.61;100107.56;4831688;29;97317;-73
2022/04/01 04:50:24;;;;;;;9.70;3.17;;;;;;;5.87;30.82;100107.19;4827601;29;98993;-73
2022/04/01 04:52:54;;;;;;;11.85;3.35;;;;;;;5.78;30.51;100112.63;4831549;29;98655;-71
2022/04/01 04:55:22;;;;;;;7.45;3.67;;;;;;;5.84;30.69;100117.72;4833053;29;97581;-72
2022/04/01 04:57:51;;;;;;;11.05;3.95;;;;;;;5.81;30.24;100109.09;4830205;29;97054;-71
2022/04/01 05:00:19;;;;;;;7.88;3.55;;;;;;;4.90;32.25;100117.44;4832180;29;99468;-72
2022/04/01 05:03:07;;;;;;;9.98;3.92;;;;;;;5.06;32.16;100118.78;4832755;29;97585;-71
2022/04/01 05:05:40;;;;;;;6.78;3.55;;;;;;;5.49;31.54;100120.41;4827773;29;97264;-71
2022/04/01 05:08:11;;;;;;;11.57;3.58;;;;;;;5.33;31.82;100125.13;4832292;29;97991;-71
2022/04/01 05:10:44;;;;;;;7.25;3.30;;;;;;;5.55;31.48;100121.09;4831962;29;101131;-72
2022/04/01 05:13:16;;;;;;;8.38;3.67;;;;;;;5.63;31.56;100122.69;4830996;29;99430;-73
2022/04/01 05:15:44;;;;;;;8.93;3.72;;;;;;;5.53;31.78;100124.66;4831279;29;99945;-72
2022/04/01 05:18:15;;;;;;;5.68;3.00;;;;;;;5.28;32.11;100128.75;4830022;29;96920;-73
2022/04/01 05:20:55;;;;;;;5.97;3.10;;;;;;;5.30;31.89;100126.97;4832029;29;102047;-73
2022/04/01 05:23:35;;;;;;;10.15;2.92;;;;;;;5.98;31.49;100126.13;4832848;29;100025;-71
2022/04/01 05:26:12;;;;;;;8.50;3.60;;;;;;;5.98;31.23;100126.13;4829734;29;97125;-73
2022/04/01 05:28:45;;;;;;;11.35;3.33;;;;;;;5.72;31.65;100144.25;4833543;29;97277;-72
2022/04/01 05:31:20;;;;;;;7.68;3.80;;;;;;;5.85;31.78;100144.81;4831159;29;98921;-71
2022/04/01 05:33:52;;;;;;;11.52;3.45;;;;;;;5.24;32.40;100143.72;4830339;29;102096;-69
2022/04/01 05:36:20;;;;;;;7.38;2.90;;;;;;;5.17;33.18;100148.22;4828194;29;96864;-70
2022/04/01 05:38:48;;;;;;;12.35;3.97;;;;;;;4.90;33.69;100151.47;4832102;29;97251;-70
2022/04/01 05:41:19;;;;;;;11.82;3.53;;;;;;;5.15;33.36;100168.34;4833079;29;100322;-70
2022/04/01 05:43:47;;;;;;;5.93;2.63;;;;;;;5.39;33.07;100155.56;4826560;29;99239;-70
2022/04/01 05:46:14;;;;;;;11.55;3.58;;;;;;;4.52;33.89;100152.28;4830686;29;98567;-70
2022/04/01 05:48:41;;;;;;;9.38;2.78;;;;;;;5.12;33.87;100157.91;4829874;29;96962;-69
2022/04/01 05:51:13;;;;;;;13.93;2.80;;;;;;;4.63;34.16;100167.75;4827162;29;99866;-71
2022/04/01 05:53:40;;;;;;;5.72;2.90;;;;;;;4.78;34.13;100163.06;4827970;29;98958;-70
2022/04/01 05:56:09;;;;;;;14.35;3.28;;;;;;;5.26;33.95;100181.19;4829593;29;98067;-70
2022/04/01 05:58:36;;;;;;;11.95;3.45;;;;;;;5.22;33.35;100175.16;4831354;29;97177;-71
2022/04/01 06:01:12;;;;;;;7.72;2.72;;;;;;;5.38;33.01;100177.44;4829455;29;97925;-70
2022/04/01 06:04:11;;;;;;;6.95;3.10;;;;;;;5.29;33.28;100175.88;4828869;29;99303;-72
2022/04/01 06:06:41;;;;;;;13.15;3.10;;;;;;;4.98;33.99;100172.25;4824851;29;99377;-70
2022/04/01 06:09:21;;;;;;;11.15;3.47;;;;;;;5.64;33.10;100182.94;4828319;29;96883;-70
2022/04/01 06:12:02;;;;;;;12.07;2.85;;;;;;;5.18;34.21;100167.44;4828515;29;97610;-70
2022/04/01 06:14:36;;;;;;;10.82;3.10;;;;;;;5.80;33.16;100179.00;4826988;29;99095;-71
2022/04/01 06:17:09;;;;;;;5.97;2.75;;;;;;;5.40;33.65;100183.50;4824319;29;98949;-70
2022/04/01 06:19:41;;;;;;;8.73;2.70;;;;;;;4.83;34.72;100181.28;4825858;29;98578;-70
2022/04/01 06:22:15;;;;;;;6.32;3.00;;;;;;;5.27;34.26;100196.00;4825495;29;101496;-70
2022/04/01 06:24:48;;;;;;;8.98;3.00;;;;;;;4.90;34.35;100188.13;4822924;29;99275;-70
2022/04/01 06:27:21;;;;;;;9.05;3.30;;;;;;;5.30;33.89;100209.06;4828007;29;97716;-70
2022/04/01 06:29:58;;;;;;;5.35;2.25;;;;;;;5.02;34.87;100193.09;4825713;29;97659;-70
2022/04/01 06:32:33;;;;;;;7.82;3.25;;;;;;;6.10;32.35;100201.03;4825671;29;99361;-69
2022/04/01 06:35:05;;;;;;;13.73;3.78;;;;;;;5.99;32.84;100201.28;4824803;29;99399;-70
2022/04/01 06:37:42;;;;;;;10.25;3.03;;;;;;;6.01;32.11;100198.63;4832309;29;98696;-69
2022/04/01 06:40:10;;;;;;;;;;;;;;;5.65;33.20;100196.88;4827158;29;100306;-70
2022/04/01 06:42:38;;;;;;;6.88;2.83;;;;;;;5.66;33.60;100195.97;4825670;29;99679;-69
2022/04/01 06:45:06;;;;;;;6.63;3.03;;;;;;;6.26;32.03;100188.34;4827684;29;98949;-70
2022/04/01 06:47:32;;;;;;;5.53;2.63;;;;;;;7.41;30.42;100179.72;4827707;29;97830;-70
2022/04/01 06:49:59;;;;;;;6.80;2.85;;;;;;;6.35;31.62;100198.63;4826100;29;97769;-69
2022/04/01 06:52:28;;;;;;;6.97;2.60;;;;;;;6.82;31.01;100201.69;4824920;29;99996;-71
2022/04/01 06:54:56;;;;;;;6.38;2.42;;;;;;;6.10;31.75;100202.78;4824396;29;102180;-71
2022/04/01 06:57:22;;;;;;;9.88;3.00;;;;;;;6.07;31.91;100197.59;4827203;29;98526;-71
2022/04/01 06:59:49;;;;;;;5.65;2.72;;;;;;;6.38;31.53;100186.25;4825115;29;97663;-69
2022/04/01 07:02:16;;;;;;;7.03;2.50;;;;;;;6.90;30.48;100182.16;4824561;29;99207;-71
2022/04/01 07:04:43;;;;;;;7.65;2.75;;;;;;;6.27;31.54;100190.94;4827202;29;102581;-70
2022/04/01 07:07:10;;;;;;;8.18;2.55;;;;;;;7.12;30.57;100201.63;4827813;29;97495;-71
2022/04/01 07:09:37;;;;;;;8.32;2.75;;;;;;;6.55;31.50;100192.81;4824164;29;98868;-70
2022/04/01 07:12:06;;;;;;;5.22;2.53;;;;;;;6.33;31.05;100189.91;4825612;29;97676;-70
2022/04/01 07:14:32;;;;;;;19.77;2.78;;;;;;;6.07;31.40;100197.59;4823935;29;100052;-70
2022/04/01 07:16:59;;;;;;;2.88;2.33;;;;;;;6.49;31.07;100191.22;4826840;29;98570;-70
2022/04/01 07:19:26;;;;;;;4.80;2.55;;;;;;;6.87;30.79;100199.78;4823231;29;97983;-71
2022/04/01 07:21:58;;;;;;;3.97;2.45;;;;;;;7.12;30.13;100198.16;4827694;29;97585;-71
2022/04/01 07:24:26;;;;;;;7.57;2.38;;;;;;;6.95;30.28;100201.28;4829513;29;99087;-70
2022/04/01 07:26:52;;;;;;;11.70;2.40;;;;;;;6.94;30.24;100198.69;4827137;29;97192;-71
2022/04/01 07:29:28;;;;;;;12.70;3.33;;;;;;;6.95;30.29;100201.28;4828173;29;96956;-72
2022/04/01 07:34:44;;;;;;;4.35;2.42;;;;;;;6.26;31.47;100207.56;4828452;29;99267;-69
2022/04/01 07:37:14;;;;;;;7.03;2.60;;;;;;;7.02;30.37;100197.53;4829065;29;97314;-71
2022/04/01 07:39:41;;;;;;;9.00;3.05;;;;;;;7.30;29.88;100200.22;4828433;29;97775;-70
2022/04/01 07:42:11;;;;;;;7.60;2.38;;;;;;;6.80;30.22;100202.59;4827749;29;98951;-72
2022/04/01 07:44:39;;;;;;;9.75;2.47;;;;;;;6.82;30.16;100199.91;4829368;29;99404;-71
2022/04/01 07:47:09;;;;;;;12.65;2.85;;;;;;;7.64;28.91;100201.78;4830605;29;96992;-70
2022/04/01 07:49:36;;;;;;;6.10;2.20;;;;;;;7.03;29.53;100214.16;4828808;29;98521;-69
2022/04/01 07:52:04;;;;;;;10.63;3.08;;;;;;;6.68;30.11;100208.19;4836166;29;101631;-70
2022/04/01 07:54:34;;;;;;;8.38;2.50;;;;;;;7.19;29.26;100215.44;4826526;29;99446;-71
2022/04/01 07:57:01;;;;;;;11.40;3.00;;;;;;;6.91;29.71;100204.88;4830468;29;98046;-71
2022/04/01 07:59:27;;;;;;;7.13;2.53;;;;;;;7.99;28.02;100212.03;4828280;29;97118;-70
2022/04/01 08:01:57;;;;;;;6.95;2.85;;;;;;;8.04;28.23;100209.22;4826200;29;99434;-70
2022/04/01 08:04:25;;;;;;;10.32;2.28;;;;;;;7.75;28.57;100210.19;4827234;29;98902;-71
2022/04/01 08:06:52;;;;;;;5.32;2.17;;;;;;;7.51;28.36;100212.69;4825157;29;97347;-70
2022/04/01 08:09:19;;;;;;;6.72;2.50;;;;;;;7.49;28.73;100208.38;4831189;29;97131;-70
2022/04/01 08:11:46;;;;;;;13.07;2.40;;;;;;;7.67;27.93;100215.72;4825758;29;99257;-70
2022/04/01 08:14:13;;;;;;;10.63;2.58;;;;;;;7.28;28.11;100216.94;4828639;29;98847;-70
2022/04/01 08:16:39;;;;;;;14.63;2.72;;;;;;;7.18;28.44;100219.84;4832154;29;97195;-69
2022/04/01 08:19:07;;;;;;;15.82;2.17;;;;;;;6.50;29.31;100223.59;4835143;29;97391;-74
2022/04/01 08:21:35;;;;;;;24.00;2.50;;;;;;;6.57;28.87;100225.97;4835279;29;98992;-74
2022/04/01 08:24:07;;;;;;;6.32;2.15;;;;;;;6.85;28.71;100235.72;4830795;29;97703;-73
2022/04/01 08:26:34;;;;;;;11.32;2.45;;;;;;;7.85;27.40;100230.03;4829090;29;97788;-73
2022/04/01 08:29:02;;;;;;;14.02;3.10;;;;;;;7.70;27.04;100238.41;4831903;29;97168;-73
2022/04/01 08:31:30;;;;;;;9.43;2.60;;;;;;;7.16;27.38;100239.19;4824144;29;97869;-73
2022/04/01 08:34:00;;;;;;;9.93;2.20;;;;;;;8.13;26.14;100243.13;4827651;29;98922;-72
2022/04/01 08:36:29;;;;;;;10.90;2.42;;;;;;;7.34;26.93;100233.41;4827496;29;96883;-75
2022/04/01 08:38:55;;;;;;;9.88;2.30;;;;;;;8.19;26.25;100237.66;4831755;29;97607;-74
2022/04/01 08:41:23;;;;;;;9.98;2.40;;;;;;;8.59;25.44;100235.41;4834274;29;98895;-73
2022/04/01 08:43:55;;;;;;;7.93;2.10;;;;;;;8.24;25.64;100247.13;4829109;29;98017;-74
2022/04/01 08:46:24;;;;;;;14.80;2.00;;;;;;;8.65;25.17;100243.09;4831093;29;97179;-72
2022/04/01 08:48:52;;;;;;;6.25;2.28;;;;;;;7.76;25.57;100241.69;4832103;29;99082;-73
2022/04/01 08:51:18;;;;;;;5.53;2.03;;;;;;;8.06;25.58;100253.00;4829385;29;101346;-71
2022/04/01 08:53:47;;;;;;;9.27;2.42;;;;;;;7.87;24.82;100255.38;4827367;29;98476;-74
2022/04/01 08:56:15;;;;;;;8.52;2.00;;;;;;;8.06;24.82;100250.38;4829988;29;98214;-75
2022/04/01 08:58:44;;;;;;;10.18;2.55;;;;;;;8.77;23.63;100266.38;4826931;29;97545;-73
2022/04/01 09:01:11;;;;;;;9.48;2.58;;;;;;;8.71;23.40;100253.41;4830346;29;100115;-73
2022/04/01 09:03:39;;;;;;;13.18;2.20;;;;;;;9.16;22.30;100266.69;4829627;29;98895;-73
2022/04/01 09:06:07;;;;;;;12.38;2.20;;;;;;;9.42;22.00;100262.19;4825916;29;98096;-72
2022/04/01 09:08:37;;;;;;;9.75;2.08;;;;;;;8.77;22.58;100265.50;4825123;29;98497;-72
2022/04/01 09:11:07;;;;;;;4.40;1.58;;;;;;;8.28;22.68;100267.16;4818482;29;99523;-74
2022/04/01 09:13:51;;;;;;;9.88;2.13;;;;;;;7.83;23.29;100256.38;4830140;29;98943;-73
2022/04/01 09:16:29;;;;;;;14.82;2.58;;;;;;;8.96;22.44;100263.94;4829908;29;97283;-74
2022/04/01 09:18:56;;;;;;;8.27;2.10;;;;;;;9.51;21.70;100267.13;4827944;29;99223;-75
2022/04/01 09:21:27;;;;;;;14.00;2.67;;;;;;;9.28;21.77;100267.13;4825586;29;98945;-75
2022/04/01 09:23:55;;;;;;;6.95;2.47;;;;;;;9.95;21.25;100271.50;4827237;29;99308;-73
2022/04/01 09:26:31;;;;;;;9.07;2.17;;;;;;;9.93;20.41;100262.78;4830576;29;96788;-74
2022/04/01 09:28:59;;;;;;;12.82;2.20;;;;;;;9.79;20.42;100267.75;4823279;29;98840;-75
2022/04/01 09:31:30;;;;;;;16.73;2.35;;;;;;;10.24;20.42;100274.78;4829677;29;99827;-73
2022/04/01 09:33:57;;;;;;;6.85;1.95;;;;;;;9.67;21.22;100268.25;4827723;29;99521;-73
2022/04/01 09:36:26;;;;;;;12.50;2.50;;;;;;;7.86;22.82;100285.22;4824668;29;97440;-74
2022/04/01 09:38:59;;;;;;;15.07;2.35;;;;;;;9.40;21.54;100274.59;4827751;29;98802;-74
2022/04/01 09:41:33;;;;;;;12.13;3.65;;;;;;;9.80;21.16;100282.66;4827483;29;99030;-73
2022/04/01 09:44:09;;;;;;;16.92;2.33;;;;;;;10.65;20.02;100276.50;4826935;29;99437;-73
2022/04/01 09:46:42;;;;;;;7.85;1.98;;;;;;;9.85;21.28;100274.56;4828245;29;97935;-73
2022/04/01 09:49:09;;;;;;;7.13;2.40;;;;;;;10.06;21.35;100276.34;4828069;29;96899;-74
2022/04/01 09:51:35;;;;;;;11.35;2.15;;;;;;;9.41;21.85;100281.56;4821038;29;101202;-73
2022/04/01 09:54:04;;;;;;;7.63;2.60;;;;;;;9.27;22.24;100278.59;4820957;29;99063;-72
2022/04/01 09:56:44;;;;;;;9.95;2.20;;;;;;;8.53;22.83;100269.88;4823670;29;97666;-73
2022/04/01 09:59:12;;;;;;;7.85;2.17;;;;;;;8.29;23.32;100284.69;4828580;29;97299;-73
2022/04/01 10:01:40;;;;;;;12.77;2.90;;;;;;;9.28;22.58;100272.41;4832760;29;99416;-73
2022/04/01 10:04:07;;;;;;;7.00;2.38;;;;;;;8.90;22.70;100281.72;4828170;29;99260;-73
2022/04/01 10:06:39;;;;;;;6.03;2.10;;;;;;;9.41;22.28;100285.06;4832263;29;96773;-73
2022/04/01 10:09:08;;;;;;;8.25;2.25;;;;;;;8.96;22.87;100274.47;4832124;29;97291;-73
2022/04/01 10:11:36;;;;;;;10.60;2.70;;;;;;;8.96;22.65;100292.06;4824810;29;99312;-72
2022/04/01 10:14:15;;;;;;;11.07;2.55;;;;;;;9.15;22.79;100275.50;4833086;29;98864;-70
2022/04/01 10:16:45;;;;;;;10.93;2.30;;;;;;;9.17;22.75;100284.22;4828082;29;97918;-71
2022/04/01 10:19:13;;;;;;;13.20;2.50;;;;;;;8.89;22.65;100278.22;4824851;29;96899;-68
2022/04/01 10:21:43;;;;;;;14.55;2.60;;;;;;;9.63;22.32;100271.94;4825608;29;100565;-70
2022/04/01 10:24:33;;;;;;;9.38;2.17;;;;;;;9.06;22.50;100275.84;4818939;29;99601;-73
2022/04/01 10:27:13;;;;;;;8.07;2.38;;;;;;;10.10;21.64;100271.81;4825184;29;96927;-72
2022/04/01 10:29:44;;;;;;;8.63;2.30;;;;;;;10.53;20.87;100266.47;4827541;29;98658;-72
2022/04/01 10:32:28;;;;;;;10.02;2.28;;;;;;;10.07;20.88;100267.50;4833510;29;99951;-72
2022/04/01 10:34:56;;;;;;;13.82;2.30;;;;;;;9.78;21.01;100271.31;4829555;29;99215;-73
2022/04/01 10:37:25;;;;;;;9.75;2.67;;;;;;;10.32;21.00;100277.94;4825412;29;100235;-71
2022/04/01 10:39:54;;;;;;;12.43;2.38;;;;;;;10.50;20.33;100271.88;4828071;29;98753;-73
2022/04/01 10:42:25;;;;;;;7.70;1.98;;;;;;;10.77;20.23;100278.63;4830507;29;97967;-74
2022/04/01 10:44:55;;;;;;;7.35;2.55;;;;;;;10.02;20.10;100271.25;4829224;29;98856;-72
2022/04/01 10:47:24;;;;;;;5.25;2.22;;;;;;;10.57;20.15;100277.75;4834361;29;97041;-69
2022/04/01 10:52:35;;;;;;;9.60;2.28;;;;;;;9.95;19.83;100266.22;4827944;29;97210;-72
2022/04/01 10:55:18;;;;;;;5.80;2.53;;;;;;;10.66;19.48;100267.66;4826055;29;99362;-73
2022/04/01 10:57:47;;;;;;;8.27;2.28;;;;;;;11.17;19.01;100266.28;4827300;29;97865;-73
2022/04/01 11:00:17;;;;;;;8.35;2.28;;;;;;;11.27;19.09;100277.31;4825460;29;98548;-74
2022/04/01 11:02:47;;;;;;;7.85;2.45;;;;;;;10.74;19.25;100275.25;4828983;29;98813;-73
2022/04/01 11:05:25;;;;;;;7.30;2.30;;;;;;;10.50;19.58;100274.50;4832362;29;99876;-72
2022/04/01 11:08:19;;;;;;;7.55;2.50;;;;;;;11.04;19.07;100265.09;4828137;29;97217;-71
2022/04/01 11:11:05;;;;;;;17.15;2.45;;;;;;;11.55;18.46;100267.16;4828228;29;98687;-73
2022/04/01 11:13:36;;;;;;;8.77;2.20;;;;;;;11.35;18.32;100268.09;4829896;29;99197;-74
2022/04/01 11:16:22;;;;;;;4.75;1.98;;;;;;;10.62;18.91;100276.66;4833938;29;101335;-73
2022/04/01 11:19:13;;;;;;;9.07;2.45;;;;;;;10.69;18.74;100272.84;4830351;29;97270;-73
2022/04/01 11:21:40;;;;;;;6.60;2.05;;;;;;;10.34;19.06;100282.25;4826298;29;96880;-73
2022/04/01 11:24:29;;;;;;;12.77;2.47;;;;;;;10.10;19.42;100272.69;4826222;29;101051;-73
2022/04/01 11:26:55;;;;;;;8.10;1.67;;;;;;;10.09;19.67;100270.09;4828259;29;102654;-73
2022/04/01 11:29:24;;;;;;;4.50;2.25;;;;;;;11.48;18.21;100258.66;4833766;29;97182;-74
2022/04/01 11:32:04;;;;;;;19.70;2.70;;;;;;;10.18;19.16;100267.09;4827650;29;98723;-72
2022/04/01 11:34:31;;;;;;;3.20;1.95;;;;;;;9.83;19.59;100279.06;4830433;29;99621;-73
2022/04/01 11:37:02;;;;;;;6.93;2.15;;;;;;;10.67;19.09;100260.59;4828589;29;98992;-73
2022/04/01 11:39:29;;;;;;;7.25;1.60;;;;;;;10.00;19.53;100258.13;4830195;29;96950;-74
2022/04/01 11:41:56;;;;;;;9.10;1.73;;;;;;;10.82;18.51;100261.72;4829705;29;98496;-73
2022/04/01 11:44:24;;;;;;;9.73;1.75;;;;;;;9.83;19.31;100264.09;4831274;29;100072;-72
2022/04/01 11:46:58;;;;;;;8.07;1.95;;;;;;;10.30;19.17;100279.81;4829953;29;99336;-72
2022/04/01 11:49:28;;;;;;;30.38;2.80;;;;;;;11.05;18.52;100266.81;4828146;29;97333;-72
2022/04/01 11:51:56;;;;;;;10.13;2.08;;;;;;;10.58;18.43;100264.50;4834127;29;97170;-71